Time;durP1;ratioP1;P1;durP2;ratioP2;P2;SDS_P1;SDS_P2;PMS_P1;PMS_P2;Temp;Humidity;BMP_temperature;BMP_pressure;BME280_temperature;BME280_humidity;BME280_pressure;Samples;Min_cycle;Max_cycle;Signal;HPM_P1;HPM_P2
2023/10/26 00:00:27;;;;;;;0.70;0.22;;;;;;;;;;5093916;28;20077;-59
2023/10/26 00:02:52;;;;;;;0.85;0.32;;;;;;;;;;5094407;28;20366;-59
2023/10/26 00:05:18;;;;;;;1.10;0.45;;;;;;;;;;5093903;28;20020;-59
2023/10/26 00:07:44;;;;;;;3.25;0.40;;;;;;;;;;5094190;28;20024;-59
2023/10/26 00:10:10;;;;;;;3.60;0.57;;;;;;;;;;5094386;28;20024;-59
2023/10/26 00:12:36;;;;;;;2.83;0.40;;;;;;;;;;5093392;28;20025;-59
2023/10/26 00:15:03;;;;;;;1.25;0.55;;;;;;;;;;5094386;28;20032;-59
2023/10/26 00:17:28;;;;;;;2.67;1.02;;;;;;;;;;5093868;28;20024;-59
2023/10/26 00:19:54;;;;;;;0.40;0.25;;;;;;;;;;5094247;28;20027;-59
2023/10/26 00:22:23;;;;;;;1.27;0.50;;;;;;;;;;5094136;28;20446;-59
2023/10/26 00:24:49;;;;;;;2.35;0.63;;;;;;;;;;5093947;28;20036;-59
2023/10/26 00:27:15;;;;;;;0.93;0.50;;;;;;;;;;5093313;28;20055;-58
2023/10/26 00:29:41;;;;;;;2.90;0.75;;;;;;;;;;5094192;28;20093;-59
2023/10/26 00:32:07;;;;;;;1.15;0.50;;;;;;;;;;5097463;28;20020;-59
2023/10/26 00:34:34;;;;;;;8.77;0.50;;;;;;;;;;5097521;28;20059;-58
2023/10/26 00:37:00;;;;;;;1.08;0.40;;;;;;;;;;5097671;28;20051;-59
2023/10/26 00:39:26;;;;;;;1.13;0.50;;;;;;;;;;5097981;28;20032;-59
2023/10/26 00:41:52;;;;;;;0.63;0.30;;;;;;;;;;5097076;28;20032;-59
2023/10/26 00:44:18;;;;;;;0.77;0.43;;;;;;;;;;5097406;28;20078;-59
2023/10/26 00:46:44;;;;;;;0.80;0.30;;;;;;;;;;5097865;28;20434;-59
2023/10/26 00:49:12;;;;;;;0.77;0.30;;;;;;;;;;5097285;28;20369;-59
2023/10/26 00:51:38;;;;;;;1.05;0.40;;;;;;;;;;5097803;28;20303;-59
2023/10/26 00:54:05;;;;;;;0.75;0.30;;;;;;;;;;5097119;28;20035;-59
2023/10/26 00:56:31;;;;;;;1.08;0.47;;;;;;;;;;5096931;28;20099;-59
2023/10/26 00:58:57;;;;;;;1.88;0.50;;;;;;;;;;5097640;28;20027;-59
2023/10/26 01:01:24;;;;;;;0.95;0.40;;;;;;;;;;5097079;28;20024;-59
2023/10/26 01:03:51;;;;;;;2.22;0.60;;;;;;;;;;5097816;28;20029;-59
2023/10/26 01:06:17;;;;;;;1.55;0.40;;;;;;;;;;5096804;28;20111;-59
2023/10/26 01:08:43;;;;;;;1.40;0.40;;;;;;;;;;5097152;28;20056;-59
2023/10/26 01:11:09;;;;;;;0.75;0.28;;;;;;;;;;5097677;28;20024;-59
2023/10/26 01:13:36;;;;;;;0.70;0.32;;;;;;;;;;5097398;28;20024;-59
2023/10/26 01:16:04;;;;;;;0.95;0.45;;;;;;;;;;5096676;28;20047;-59
2023/10/26 01:18:31;;;;;;;1.27;0.52;;;;;;;;;;5096745;28;20093;-59
2023/10/26 01:20:57;;;;;;;1.63;0.60;;;;;;;;;;5097272;28;20035;-59
2023/10/26 01:23:23;;;;;;;1.63;0.63;;;;;;;;;;5096293;28;20462;-59
2023/10/26 01:25:51;;;;;;;0.73;0.30;;;;;;;;;;5097141;28;20035;-59
2023/10/26 01:28:17;;;;;;;1.15;0.50;;;;;;;;;;5096888;28;20024;-59
2023/10/26 01:30:43;;;;;;;1.33;0.57;;;;;;;;;;5096827;28;20028;-59
2023/10/26 01:33:09;;;;;;;1.58;0.77;;;;;;;;;;5096487;28;20024;-59
2023/10/26 01:35:41;;;;;;;0.95;0.52;;;;;;;;;;5096148;28;20463;-59
2023/10/26 01:38:07;;;;;;;1.27;0.40;;;;;;;;;;5096429;28;20024;-59
2023/10/26 01:40:33;;;;;;;0.60;0.22;;;;;;;;;;5096343;28;20028;-59
2023/10/26 01:42:59;;;;;;;1.00;0.50;;;;;;;;;;5096034;28;20387;-59
2023/10/26 01:45:25;;;;;;;1.02;0.50;;;;;;;;;;5096768;28;20034;-59
2023/10/26 01:47:51;;;;;;;1.05;0.50;;;;;;;;;;5095937;28;20072;-59
2023/10/26 01:50:17;;;;;;;1.77;0.82;;;;;;;;;;5096486;28;20020;-59
2023/10/26 01:52:43;;;;;;;0.80;0.40;;;;;;;;;;5096365;28;20048;-59
2023/10/26 01:55:09;;;;;;;1.15;0.40;;;;;;;;;;5096758;28;20035;-59
2023/10/26 01:57:35;;;;;;;1.48;0.55;;;;;;;;;;5095759;28;20024;-59
2023/10/26 02:00:01;;;;;;;1.92;0.68;;;;;;;;;;5095991;28;20024;-59
2023/10/26 02:02:27;;;;;;;0.90;0.43;;;;;;;;;;5096255;28;20028;-59
2023/10/26 02:04:54;;;;;;;1.60;0.65;;;;;;;;;;5096268;28;20468;-59
2023/10/26 02:07:20;;;;;;;0.77;0.40;;;;;;;;;;5095840;28;20032;-59
2023/10/26 02:09:46;;;;;;;0.90;0.45;;;;;;;;;;5096161;28;20405;-59
2023/10/26 02:12:12;;;;;;;1.60;0.50;;;;;;;;;;5095465;28;20055;-58
2023/10/26 02:14:38;;;;;;;1.40;0.52;;;;;;;;;;5095613;28;20075;-59
2023/10/26 02:17:05;;;;;;;0.65;0.32;;;;;;;;;;5096291;28;20111;-59
2023/10/26 02:19:31;;;;;;;1.08;0.57;;;;;;;;;;5095668;28;20024;-59
2023/10/26 02:21:57;;;;;;;1.15;0.38;;;;;;;;;;5095855;28;20435;-59
2023/10/26 02:24:23;;;;;;;0.98;0.47;;;;;;;;;;5095234;28;20101;-59
2023/10/26 02:26:48;;;;;;;1.95;0.43;;;;;;;;;;5095472;28;20107;-59
2023/10/26 02:29:14;;;;;;;1.42;0.80;;;;;;;;;;5095397;28;20028;-59
2023/10/26 02:31:40;;;;;;;0.98;0.50;;;;;;;;;;5095099;28;20024;-59
2023/10/26 02:34:06;;;;;;;2.08;0.70;;;;;;;;;;5095433;28;20020;-59
2023/10/26 02:36:32;;;;;;;1.45;0.68;;;;;;;;;;5095354;28;20051;-59
2023/10/26 02:38:58;;;;;;;0.90;0.40;;;;;;;;;;5095526;28;20032;-59
2023/10/26 02:41:24;;;;;;;0.60;0.30;;;;;;;;;;5095226;28;20133;-59
2023/10/26 02:43:50;;;;;;;1.98;0.80;;;;;;;;;;5094821;28;20020;-59
2023/10/26 02:46:16;;;;;;;1.58;0.63;;;;;;;;;;5095020;28;20028;-59
2023/10/26 02:48:42;;;;;;;2.63;0.22;;;;;;;;;;5094957;28;20077;-59
2023/10/26 02:51:08;;;;;;;0.73;0.35;;;;;;;;;;5095553;28;20020;-59
2023/10/26 02:53:34;;;;;;;1.90;0.55;;;;;;;;;;5094436;28;20027;-59
2023/10/26 02:56:00;;;;;;;1.33;0.68;;;;;;;;;;5094507;28;20042;-59
2023/10/26 02:58:26;;;;;;;2.22;0.47;;;;;;;;;;5094829;28;20070;-59
2023/10/26 03:00:55;;;;;;;1.98;0.60;;;;;;;;;;5095071;28;20024;-59
2023/10/26 03:03:22;;;;;;;1.17;0.45;;;;;;;;;;5095235;28;20362;-59
2023/10/26 03:05:48;;;;;;;1.23;0.52;;;;;;;;;;5094593;28;20445;-59
2023/10/26 03:08:14;;;;;;;1.02;0.65;;;;;;;;;;5094624;28;20024;-59
2023/10/26 03:10:40;;;;;;;2.50;0.60;;;;;;;;;;5094849;28;20031;-59
2023/10/26 03:13:06;;;;;;;0.88;0.43;;;;;;;;;;5095263;28;20020;-59
2023/10/26 03:15:32;;;;;;;1.23;0.80;;;;;;;;;;5094380;28;20457;-59
2023/10/26 03:17:58;;;;;;;2.58;0.63;;;;;;;;;;5094474;28;20031;-59
2023/10/26 03:20:24;;;;;;;0.85;0.50;;;;;;;;;;5095243;28;20020;-59
2023/10/26 03:22:50;;;;;;;4.07;0.50;;;;;;;;;;5094132;28;20031;-59
2023/10/26 03:25:16;;;;;;;0.93;0.45;;;;;;;;;;5094360;28;20380;-59
2023/10/26 03:27:43;;;;;;;0.85;0.45;;;;;;;;;;5094272;28;20028;-59
2023/10/26 03:30:09;;;;;;;0.93;0.40;;;;;;;;;;5094839;28;20051;-59
2023/10/26 03:32:35;;;;;;;1.48;0.70;;;;;;;;;;5094450;28;20024;-59
2023/10/26 03:35:01;;;;;;;1.52;0.52;;;;;;;;;;5094141;28;20109;-59
2023/10/26 03:37:27;;;;;;;1.20;0.45;;;;;;;;;;5093859;28;20059;-59
2023/10/26 03:39:53;;;;;;;0.82;0.45;;;;;;;;;;5094633;28;20024;-59
2023/10/26 03:42:19;;;;;;;0.73;0.40;;;;;;;;;;5094872;28;20077;-59
2023/10/26 03:44:45;;;;;;;2.85;0.65;;;;;;;;;;5094809;28;20093;-59
2023/10/26 03:47:11;;;;;;;2.25;0.50;;;;;;;;;;5094006;28;20083;-59
2023/10/26 03:49:37;;;;;;;1.17;0.68;;;;;;;;;;5094574;28;20025;-59
2023/10/26 03:52:04;;;;;;;4.07;0.57;;;;;;;;;;5093859;28;20032;-59
2023/10/26 03:54:30;;;;;;;1.75;0.90;;;;;;;;;;5094114;28;20047;-59
2023/10/26 03:56:55;;;;;;;0.88;0.50;;;;;;;;;;5094134;28;20366;-59
2023/10/26 03:59:21;;;;;;;1.13;0.70;;;;;;;;;;5093496;28;20024;-59
2023/10/26 04:01:47;;;;;;;1.10;0.55;;;;;;;;;;5093892;28;20412;-59
2023/10/26 04:04:13;;;;;;;0.75;0.35;;;;;;;;;;5094265;28;20379;-59
2023/10/26 04:06:39;;;;;;;2.08;0.70;;;;;;;;;;5093008;28;20069;-59
2023/10/26 04:09:05;;;;;;;2.22;0.80;;;;;;;;;;5093844;28;20020;-59
2023/10/26 04:11:31;;;;;;;2.55;1.00;;;;;;;;;;5094333;28;20630;-59
2023/10/26 04:13:57;;;;;;;1.38;0.73;;;;;;;;;;5093362;28;20024;-59
2023/10/26 04:16:23;;;;;;;2.15;0.63;;;;;;;;;;5093652;28;20127;-59
2023/10/26 04:18:49;;;;;;;2.00;0.80;;;;;;;;;;5093655;28;20030;-59
2023/10/26 04:21:16;;;;;;;1.80;0.73;;;;;;;;;;5093685;28;20032;-59
2023/10/26 04:23:41;;;;;;;2.25;0.93;;;;;;;;;;5093714;28;20028;-59
2023/10/26 04:26:12;;;;;;;1.80;0.70;;;;;;;;;;5093970;28;20028;-59
2023/10/26 04:28:38;;;;;;;;;;;;;;;;;;5094714;28;20028;-59
2023/10/26 04:31:04;;;;;;;1.63;0.75;;;;;;;;;;5093691;28;19910;-59
2023/10/26 04:33:30;;;;;;;1.33;0.50;;;;;;;;;;5093825;28;20365;-59
2023/10/26 04:35:59;;;;;;;1.20;0.52;;;;;;;;;;5093572;28;20478;-59
2023/10/26 04:38:25;;;;;;;5.20;0.70;;;;;;;;;;5094036;28;20035;-59
2023/10/26 04:40:52;;;;;;;1.50;0.60;;;;;;;;;;5093794;28;20023;-59
2023/10/26 04:43:18;;;;;;;2.03;0.73;;;;;;;;;;5093486;28;20437;-59
2023/10/26 04:45:43;;;;;;;1.20;0.55;;;;;;;;;;5093405;28;20059;-59
2023/10/26 04:48:09;;;;;;;1.77;0.55;;;;;;;;;;5093942;28;20024;-59
2023/10/26 04:50:36;;;;;;;1.50;0.60;;;;;;;;;;5093738;28;20036;-59
2023/10/26 04:53:02;;;;;;;1.30;0.65;;;;;;;;;;5093340;28;20028;-59
2023/10/26 04:55:35;;;;;;;2.92;0.93;;;;;;;;;;5093353;28;20373;-59
2023/10/26 04:58:01;;;;;;;1.63;0.70;;;;;;;;;;5093445;28;20069;-59
2023/10/26 05:00:27;;;;;;;1.63;0.70;;;;;;;;;;5093773;28;20031;-59
2023/10/26 05:02:53;;;;;;;0.90;0.40;;;;;;;;;;5093221;28;20389;-59
2023/10/26 05:05:19;;;;;;;1.08;0.50;;;;;;;;;;5093152;28;20031;-59
2023/10/26 05:07:45;;;;;;;1.20;0.68;;;;;;;;;;5093210;28;20032;-59
2023/10/26 05:10:12;;;;;;;2.90;0.57;;;;;;;;;;5093680;28;20051;-59
2023/10/26 05:12:38;;;;;;;1.35;0.47;;;;;;;;;;5093671;28;20027;-59
2023/10/26 05:15:04;;;;;;;1.88;0.63;;;;;;;;;;5093249;28;20028;-59
2023/10/26 05:17:30;;;;;;;0.60;0.30;;;;;;;;;;5095966;28;20032;-59
2023/10/26 05:19:56;;;;;;;0.75;0.32;;;;;;;;;;5096876;28;20039;-59
2023/10/26 05:22:22;;;;;;;1.38;0.70;;;;;;;;;;5096774;28;20047;-59
2023/10/26 05:24:47;;;;;;;1.50;0.63;;;;;;;;;;5096795;28;20374;-59
2023/10/26 05:27:13;;;;;;;0.68;0.30;;;;;;;;;;5096352;28;20028;-59
2023/10/26 05:29:39;;;;;;;0.80;0.40;;;;;;;;;;5096404;28;20047;-59
2023/10/26 05:32:05;;;;;;;3.13;0.50;;;;;;;;;;5096643;28;20028;-59
2023/10/26 05:34:31;;;;;;;1.08;0.50;;;;;;;;;;5096736;28;20028;-59
2023/10/26 05:36:57;;;;;;;1.20;0.52;;;;;;;;;;5096588;28;20089;-59
2023/10/26 05:39:23;;;;;;;2.20;0.73;;;;;;;;;;5096398;28;20031;-59
2023/10/26 05:41:51;;;;;;;0.82;0.40;;;;;;;;;;5096700;28;20027;-59
2023/10/26 05:44:17;;;;;;;1.20;0.68;;;;;;;;;;5096327;28;20158;-59
2023/10/26 05:46:43;;;;;;;2.13;0.82;;;;;;;;;;5096404;28;20465;-59
2023/10/26 05:49:09;;;;;;;1.08;0.43;;;;;;;;;;5096275;28;20378;-59
2023/10/26 05:51:35;;;;;;;2.78;0.85;;;;;;;;;;5096275;28;20077;-59
2023/10/26 05:54:01;;;;;;;2.15;0.60;;;;;;;;;;5096332;28;20177;-59
2023/10/26 05:56:27;;;;;;;2.55;0.70;;;;;;;;;;5095783;28;20032;-59
2023/10/26 05:58:53;;;;;;;2.00;1.08;;;;;;;;;;5095984;28;20027;-59
2023/10/26 06:01:19;;;;;;;4.20;0.73;;;;;;;;;;5096343;28;20032;-59
2023/10/26 06:03:45;;;;;;;1.88;0.82;;;;;;;;;;5095929;28;20028;-59
2023/10/26 06:06:12;;;;;;;1.33;0.73;;;;;;;;;;5095486;28;20100;-59
2023/10/26 06:08:39;;;;;;;3.95;0.93;;;;;;;;;;5095910;28;20032;-59
2023/10/26 06:11:05;;;;;;;3.63;0.82;;;;;;;;;;5096412;28;20055;-59
2023/10/26 06:13:31;;;;;;;1.52;0.77;;;;;;;;;;5095805;28;20095;-59
2023/10/26 06:15:56;;;;;;;1.95;1.00;;;;;;;;;;5095604;28;20118;-59
2023/10/26 06:18:22;;;;;;;4.38;0.70;;;;;;;;;;5095968;28;20507;-59
2023/10/26 06:20:58;;;;;;;0.60;0.30;;;;;;;;;;5096231;28;20429;-59
2023/10/26 06:23:24;;;;;;;2.15;0.80;;;;;;;;;;5095542;28;20032;-59
2023/10/26 06:25:50;;;;;;;2.40;0.80;;;;;;;;;;5096069;28;20069;-59
2023/10/26 06:28:17;;;;;;;1.30;0.60;;;;;;;;;;5094310;28;20024;-59
2023/10/26 06:30:43;;;;;;;1.27;0.40;;;;;;;;;;5095767;28;20024;-59
2023/10/26 06:33:10;;;;;;;1.42;0.70;;;;;;;;;;5095677;28;20031;-59
2023/10/26 06:35:36;;;;;;;2.88;1.08;;;;;;;;;;5095043;28;20039;-59
2023/10/26 06:38:01;;;;;;;1.20;1.02;;;;;;;;;;5096351;28;20048;-59
2023/10/26 06:40:27;;;;;;;1.83;0.60;;;;;;;;;;5095410;28;20032;-59
2023/10/26 06:42:53;;;;;;;1.08;0.50;;;;;;;;;;5095275;28;20024;-59
2023/10/26 06:45:19;;;;;;;2.13;0.80;;;;;;;;;;5095724;28;20131;-59
2023/10/26 06:47:45;;;;;;;0.95;0.47;;;;;;;;;;5095398;28;20028;-59
2023/10/26 06:50:11;;;;;;;3.45;0.98;;;;;;;;;;5095436;28;20507;-59
2023/10/26 06:52:37;;;;;;;1.67;0.73;;;;;;;;;;5095391;28;20020;-59
2023/10/26 06:55:03;;;;;;;1.75;0.70;;;;;;;;;;5094596;28;20085;-59
2023/10/26 06:57:32;;;;;;;1.17;0.60;;;;;;;;;;5094872;28;20032;-59
2023/10/26 06:59:59;;;;;;;3.45;0.70;;;;;;;;;;5095784;28;20024;-59
2023/10/26 07:02:25;;;;;;;3.13;0.60;;;;;;;;;;5095373;28;20025;-59
2023/10/26 07:04:51;;;;;;;1.70;0.60;;;;;;;;;;5095027;28;20081;-59
2023/10/26 07:07:17;;;;;;;1.33;0.70;;;;;;;;;;5095472;28;20089;-59
2023/10/26 07:09:43;;;;;;;1.23;0.70;;;;;;;;;;5095339;28;20493;-59
2023/10/26 07:12:09;;;;;;;1.10;0.60;;;;;;;;;;5094795;28;20035;-59
2023/10/26 07:14:36;;;;;;;2.55;0.85;;;;;;;;;;5094265;28;20031;-59
2023/10/26 07:17:02;;;;;;;1.08;0.50;;;;;;;;;;5095130;28;20032;-59
2023/10/26 07:19:28;;;;;;;1.38;0.70;;;;;;;;;;5094920;28;20121;-59
2023/10/26 07:21:54;;;;;;;4.32;0.98;;;;;;;;;;5095389;28;20064;-59
2023/10/26 07:24:20;;;;;;;1.98;0.90;;;;;;;;;;5094536;28;20085;-59
2023/10/26 07:26:50;;;;;;;1.13;0.63;;;;;;;;;;5094376;28;20073;-59
2023/10/26 07:29:16;;;;;;;3.65;1.00;;;;;;;;;;5094676;28;20111;-59
2023/10/26 07:31:42;;;;;;;1.30;0.77;;;;;;;;;;5094893;28;20492;-59
2023/10/26 07:34:08;;;;;;;1.17;0.57;;;;;;;;;;5094845;28;20016;-59
2023/10/26 07:36:34;;;;;;;1.45;0.85;;;;;;;;;;5094364;28;20127;-59
2023/10/26 07:39:00;;;;;;;4.85;0.93;;;;;;;;;;5094010;28;20024;-59
2023/10/26 07:41:26;;;;;;;1.80;0.57;;;;;;;;;;5094676;28;20035;-59
2023/10/26 07:43:52;;;;;;;2.65;1.15;;;;;;;;;;5094853;28;20468;-59
2023/10/26 07:46:19;;;;;;;1.73;0.68;;;;;;;;;;5094060;28;20028;-59
2023/10/26 07:48:45;;;;;;;4.35;1.20;;;;;;;;;;5093904;28;20031;-59
2023/10/26 07:51:11;;;;;;;2.67;1.27;;;;;;;;;;5094446;28;20028;-59
2023/10/26 07:53:37;;;;;;;3.78;1.00;;;;;;;;;;5093954;28;20024;-59
2023/10/26 07:56:03;;;;;;;5.63;1.00;;;;;;;;;;5094412;28;20417;-59
2023/10/26 07:58:30;;;;;;;1.38;0.80;;;;;;;;;;5094247;28;20031;-59
2023/10/26 08:00:56;;;;;;;1.88;0.82;;;;;;;;;;5094369;28;20119;-59
2023/10/26 08:03:27;;;;;;;1.02;0.43;;;;;;;;;;5093487;28;20466;-59
2023/10/26 08:05:57;;;;;;;1.30;0.70;;;;;;;;;;5093745;28;20024;-59
2023/10/26 08:08:23;;;;;;;2.10;0.80;;;;;;;;;;5094520;28;20024;-59
2023/10/26 08:10:49;;;;;;;1.58;0.75;;;;;;;;;;5094102;28;20545;-59
2023/10/26 08:13:15;;;;;;;2.80;1.05;;;;;;;;;;5093457;28;20416;-59
2023/10/26 08:15:43;;;;;;;1.98;0.73;;;;;;;;;;5094135;28;20044;-59
2023/10/26 08:18:09;;;;;;;1.77;1.05;;;;;;;;;;5093657;28;20032;-59
2023/10/26 08:20:35;;;;;;;1.88;0.90;;;;;;;;;;5094019;28;20078;-59
2023/10/26 08:23:02;;;;;;;2.08;0.93;;;;;;;;;;5093625;28;20029;-59
2023/10/26 08:25:28;;;;;;;1.30;0.52;;;;;;;;;;5093478;28;20032;-59
2023/10/26 08:27:54;;;;;;;4.78;1.83;;;;;;;;;;5093572;28;20363;-59
2023/10/26 08:30:20;;;;;;;2.78;0.95;;;;;;;;;;5094172;28;20039;-59
2023/10/26 08:32:49;;;;;;;6.47;1.33;;;;;;;;;;5093704;28;20020;-59
2023/10/26 08:35:15;;;;;;;3.85;0.90;;;;;;;;;;5093407;28;20040;-59
2023/10/26 08:37:41;;;;;;;3.28;1.38;;;;;;;;;;5094018;28;20063;-59
2023/10/26 08:40:13;;;;;;;1.88;0.80;;;;;;;;;;5093732;28;20027;-59
2023/10/26 08:42:40;;;;;;;2.00;1.20;;;;;;;;;;5094069;28;20020;-59
2023/10/26 08:45:11;;;;;;;2.30;1.20;;;;;;;;;;5093720;28;20032;-59
2023/10/26 08:47:37;;;;;;;2.80;1.40;;;;;;;;;;5093966;28;20035;-59
2023/10/26 08:50:03;;;;;;;1.05;0.75;;;;;;;;;;5093806;28;20032;-59
2023/10/26 08:52:29;;;;;;;2.60;1.45;;;;;;;;;;5095159;28;20020;-59
2023/10/26 08:54:55;;;;;;;2.03;1.30;;;;;;;;;;5097302;28;20470;-59
2023/10/26 08:57:21;;;;;;;2.45;1.15;;;;;;;;;;5097829;28;20413;-59
2023/10/26 08:59:47;;;;;;;2.00;1.27;;;;;;;;;;5098177;28;20024;-59
2023/10/26 09:02:13;;;;;;;4.90;3.00;;;;;;;;;;5097926;28;20441;-59
2023/10/26 09:04:59;;;;;;;7.22;2.47;;;;;;;;;;5097127;28;20484;-59
2023/10/26 09:07:26;;;;;;;7.93;5.38;;;;;;;;;;5097681;28;20463;-59
2023/10/26 09:09:51;;;;;;;3.63;1.90;;;;;;;;;;5097884;28;20039;-59
2023/10/26 09:12:17;;;;;;;2.42;1.17;;;;;;;;;;5096665;28;20024;-59
2023/10/26 09:14:58;;;;;;;1.83;0.82;;;;;;;;;;5096831;28;20036;-59
2023/10/26 09:17:30;;;;;;;2.22;1.05;;;;;;;;;;5097471;28;20062;-59
2023/10/26 09:19:57;;;;;;;1.38;0.55;;;;;;;;;;5097052;28;20020;-59
2023/10/26 09:22:36;;;;;;;2.25;1.02;;;;;;;;;;5097035;28;20020;-59
2023/10/26 09:25:08;;;;;;;2.80;1.00;;;;;;;;;;5097315;28;20021;-59
2023/10/26 09:27:35;;;;;;;4.22;1.50;;;;;;;;;;5096386;28;20024;-59
2023/10/26 09:30:01;;;;;;;2.13;1.50;;;;;;;;;;5096651;28;20024;-59
2023/10/26 09:32:34;;;;;;;2.95;1.35;;;;;;;;;;5096356;28;20016;-59
2023/10/26 09:35:01;;;;;;;3.38;2.08;;;;;;;;;;5096537;28;20364;-59
2023/10/26 09:37:26;;;;;;;5.55;1.58;;;;;;;;;;5096186;28;20051;-59
2023/10/26 09:39:53;;;;;;;4.80;2.13;;;;;;;;;;5097044;28;20028;-59
2023/10/26 09:42:20;;;;;;;3.97;2.20;;;;;;;;;;5096703;28;20047;-59
2023/10/26 09:44:46;;;;;;;2.85;1.63;;;;;;;;;;5096078;28;20039;-59
2023/10/26 09:47:12;;;;;;;3.45;2.05;;;;;;;;;;5096849;28;20081;-60
2023/10/26 09:49:38;;;;;;;2.83;1.80;;;;;;;;;;5096906;28;20068;-59
2023/10/26 09:52:04;;;;;;;2.85;2.10;;;;;;;;;;5095994;28;20028;-59
2023/10/26 09:54:32;;;;;;;2.58;1.60;;;;;;;;;;5096165;28;20035;-59
2023/10/26 09:57:10;;;;;;;5.20;2.30;;;;;;;;;;5096614;28;20055;-59
2023/10/26 09:59:37;;;;;;;7.20;3.30;;;;;;;;;;5096141;28;20024;-59
2023/10/26 10:02:18;;;;;;;3.08;2.25;;;;;;;;;;5096039;28;20028;-59
2023/10/26 10:04:45;;;;;;;3.80;2.33;;;;;;;;;;5095487;28;20036;-59
2023/10/26 10:07:16;;;;;;;2.63;1.85;;;;;;;;;;5095960;28;20104;-59
2023/10/26 10:10:01;;;;;;;11.18;7.90;;;;;;;;;;5096101;28;20020;-59
2023/10/26 10:12:26;;;;;;;8.18;4.97;;;;;;;;;;5096169;28;20095;-59
2023/10/26 10:14:54;;;;;;;4.22;3.10;;;;;;;;;;5095339;28;20028;-60
2023/10/26 10:17:43;;;;;;;4.07;2.40;;;;;;;;;;5095675;28;20024;-59
2023/10/26 10:20:16;;;;;;;2.90;1.85;;;;;;;;;;5096225;28;20072;-59
2023/10/26 10:22:45;;;;;;;4.07;2.63;;;;;;;;;;5095635;28;20024;-59
2023/10/26 10:25:12;;;;;;;5.00;4.28;;;;;;;;;;5095566;28;20028;-59
2023/10/26 10:27:38;;;;;;;7.72;6.93;;;;;;;;;;5095549;28;20373;-59
2023/10/26 10:30:05;;;;;;;5.50;5.00;;;;;;;;;;5095972;28;20050;-59
2023/10/26 10:32:50;;;;;;;2.97;2.58;;;;;;;;;;5095310;28;20036;-59
2023/10/26 10:35:22;;;;;;;3.20;2.17;;;;;;;;;;5095528;28;20040;-59
2023/10/26 10:38:07;;;;;;;2.78;1.85;;;;;;;;;;5095790;28;20040;-60
2023/10/26 10:40:34;;;;;;;2.45;1.38;;;;;;;;;;5095763;28;20039;-59
2023/10/26 10:43:01;;;;;;;2.28;1.65;;;;;;;;;;5095160;28;20023;-59
2023/10/26 10:45:27;;;;;;;6.97;4.35;;;;;;;;;;5095379;28;20028;-59
2023/10/26 10:47:53;;;;;;;4.85;4.00;;;;;;;;;;5095352;28;20351;-60
2023/10/26 10:50:20;;;;;;;5.70;3.00;;;;;;;;;;5095578;28;20031;-59
2023/10/26 10:52:53;;;;;;;3.50;2.72;;;;;;;;;;5095656;28;20020;-59
2023/10/26 10:55:26;;;;;;;2.55;1.80;;;;;;;;;;5095502;28;20040;-60
2023/10/26 10:57:53;;;;;;;3.72;2.53;;;;;;;;;;5094779;28;20086;-60
2023/10/26 11:00:19;;;;;;;3.30;1.88;;;;;;;;;;5095851;28;20024;-59
2023/10/26 11:02:56;;;;;;;2.45;1.70;;;;;;;;;;5095642;28;20020;-59
2023/10/26 11:05:34;;;;;;;2.65;1.60;;;;;;;;;;5095270;28;20024;-59
2023/10/26 11:08:00;;;;;;;2.55;2.03;;;;;;;;;;5094560;28;20025;-59
2023/10/26 11:10:27;;;;;;;2.70;1.85;;;;;;;;;;5094814;28;20490;-59
2023/10/26 11:12:53;;;;;;;3.15;2.10;;;;;;;;;;5094951;28;20028;-59
2023/10/26 11:15:19;;;;;;;2.22;1.60;;;;;;;;;;5094833;28;20032;-59
2023/10/26 11:17:45;;;;;;;2.42;1.52;;;;;;;;;;5094554;28;20024;-59
2023/10/26 11:20:29;;;;;;;2.40;1.65;;;;;;;;;;5095346;28;20028;-60
2023/10/26 11:22:58;;;;;;;2.58;1.95;;;;;;;;;;5094961;28;20028;-60
2023/10/26 11:25:25;;;;;;;2.40;1.77;;;;;;;;;;5094325;28;20373;-59
2023/10/26 11:27:51;;;;;;;2.75;2.10;;;;;;;;;;5094742;28;20028;-59
2023/10/26 11:30:17;;;;;;;2.35;1.40;;;;;;;;;;5094689;28;20024;-58
2023/10/26 11:32:43;;;;;;;2.65;1.67;;;;;;;;;;5095161;28;20085;-58
2023/10/26 11:35:10;;;;;;;3.33;1.92;;;;;;;;;;5094795;28;20032;-59
2023/10/26 11:37:38;;;;;;;2.50;1.63;;;;;;;;;;5094645;28;20083;-59
2023/10/26 11:40:08;;;;;;;2.45;1.70;;;;;;;;;;5094747;28;20111;-58
2023/10/26 11:42:43;;;;;;;2.30;1.70;;;;;;;;;;5094465;28;20118;-58
2023/10/26 11:45:11;;;;;;;2.03;1.60;;;;;;;;;;5094109;28;20032;-59
2023/10/26 11:47:44;;;;;;;3.95;1.30;;;;;;;;;;5094055;28;20024;-58
2023/10/26 11:50:20;;;;;;;2.33;1.40;;;;;;;;;;5094343;28;20374;-58
2023/10/26 11:52:46;;;;;;;2.40;1.10;;;;;;;;;;5093975;28;20450;-59
2023/10/26 11:55:14;;;;;;;1.45;0.60;;;;;;;;;;5093921;28;20474;-59
2023/10/26 11:57:40;;;;;;;1.80;0.95;;;;;;;;;;5093958;28;20055;-59
2023/10/26 12:00:06;;;;;;;1.60;0.85;;;;;;;;;;5094267;28;20451;-59
2023/10/26 12:02:33;;;;;;;2.13;1.20;;;;;;;;;;5093879;28;20024;-59
2023/10/26 12:04:59;;;;;;;2.65;1.50;;;;;;;;;;5093729;28;20070;-58
2023/10/26 12:07:25;;;;;;;2.10;1.48;;;;;;;;;;5093334;28;20462;-59
2023/10/26 12:09:51;;;;;;;3.03;1.88;;;;;;;;;;5094042;28;20070;-59
2023/10/26 12:12:17;;;;;;;3.53;2.60;;;;;;;;;;5093478;28;20035;-59
2023/10/26 12:14:43;;;;;;;2.72;2.25;;;;;;;;;;5093931;28;20035;-58
2023/10/26 12:17:11;;;;;;;2.42;1.58;;;;;;;;;;5094232;28;20028;-59
2023/10/26 12:19:37;;;;;;;2.17;1.38;;;;;;;;;;5093824;28;20054;-59
2023/10/26 12:22:03;;;;;;;2.53;1.98;;;;;;;;;;5094173;28;20020;-59
2023/10/26 12:24:29;;;;;;;2.25;1.33;;;;;;;;;;5093897;28;20039;-59
2023/10/26 12:26:56;;;;;;;2.13;1.10;;;;;;;;;;5095792;28;20028;-59
2023/10/26 12:29:22;;;;;;;1.85;1.13;;;;;;;;;;5097533;28;20473;-58
2023/10/26 12:31:48;;;;;;;2.08;1.15;;;;;;;;;;5098368;28;20039;-58
2023/10/26 12:34:14;;;;;;;1.90;1.10;;;;;;;;;;5097657;28;20049;-58
2023/10/26 12:36:40;;;;;;;1.67;1.00;;;;;;;;;;5097317;28;20040;-59
2023/10/26 12:39:06;;;;;;;1.80;0.80;;;;;;;;;;5097753;28;20034;-59
2023/10/26 12:41:31;;;;;;;2.40;1.20;;;;;;;;;;5098198;28;20020;-59
2023/10/26 12:43:57;;;;;;;2.88;0.95;;;;;;;;;;5097922;28;20081;-58
2023/10/26 12:46:23;;;;;;;2.08;1.33;;;;;;;;;;5097599;28;20024;-58
2023/10/26 12:48:49;;;;;;;2.40;1.30;;;;;;;;;;5097270;28;20028;-58
2023/10/26 12:51:15;;;;;;;4.68;3.15;;;;;;;;;;5097575;28;20027;-58
2023/10/26 12:53:41;;;;;;;3.15;2.50;;;;;;;;;;5097787;28;20028;-58
2023/10/26 12:56:10;;;;;;;2.95;2.17;;;;;;;;;;5097400;28;20043;-58
2023/10/26 12:58:36;;;;;;;2.60;2.10;;;;;;;;;;5097482;28;20166;-58
2023/10/26 13:01:03;;;;;;;7.88;2.65;;;;;;;;;;5098008;28;20059;-58
2023/10/26 13:03:29;;;;;;;3.95;2.58;;;;;;;;;;5097141;28;20085;-58
2023/10/26 13:05:55;;;;;;;2.85;2.28;;;;;;;;;;5097470;28;20095;-58
2023/10/26 13:08:21;;;;;;;4.50;2.60;;;;;;;;;;5097523;28;20032;-58
2023/10/26 13:10:47;;;;;;;2.80;2.45;;;;;;;;;;5097704;28;20090;-58
2023/10/26 13:13:13;;;;;;;2.53;1.88;;;;;;;;;;5097172;28;20024;-58
2023/10/26 13:15:39;;;;;;;4.25;3.25;;;;;;;;;;5097223;28;20106;-58
2023/10/26 13:18:05;;;;;;;3.05;2.40;;;;;;;;;;5097502;28;20051;-58
2023/10/26 13:20:31;;;;;;;3.47;2.83;;;;;;;;;;5097234;28;20060;-58
2023/10/26 13:22:57;;;;;;;4.68;3.00;;;;;;;;;;5097377;28;20414;-58
2023/10/26 13:25:25;;;;;;;3.75;3.08;;;;;;;;;;5097100;28;20055;-58
2023/10/26 13:27:51;;;;;;;3.72;2.80;;;;;;;;;;5097502;28;20040;-59
2023/10/26 13:30:17;;;;;;;3.55;2.17;;;;;;;;;;5096758;28;20035;-58
2023/10/26 13:32:43;;;;;;;2.65;1.75;;;;;;;;;;5096729;28;20020;-58
2023/10/26 13:35:10;;;;;;;3.03;1.90;;;;;;;;;;5096612;28;20040;-58
2023/10/26 13:37:36;;;;;;;2.30;1.60;;;;;;;;;;5097196;28;20048;-59
2023/10/26 13:40:02;;;;;;;5.15;2.17;;;;;;;;;;5096598;28;20024;-59
2023/10/26 13:42:28;;;;;;;4.20;2.10;;;;;;;;;;5096549;28;20024;-59
2023/10/26 13:44:54;;;;;;;4.07;2.60;;;;;;;;;;5096383;28;20099;-59
2023/10/26 13:47:20;;;;;;;2.50;1.70;;;;;;;;;;5096868;28;20059;-59
2023/10/26 13:49:46;;;;;;;3.15;2.22;;;;;;;;;;5096648;28;20020;-59
2023/10/26 13:52:12;;;;;;;2.40;1.60;;;;;;;;;;5095925;28;20023;-59
2023/10/26 13:54:38;;;;;;;3.15;2.33;;;;;;;;;;5096140;28;20032;-59
2023/10/26 13:57:05;;;;;;;3.00;2.22;;;;;;;;;;5096261;28;20081;-59
2023/10/26 13:59:31;;;;;;;4.15;2.40;;;;;;;;;;5096600;28;20055;-59
2023/10/26 14:01:57;;;;;;;2.40;1.83;;;;;;;;;;5096035;28;20466;-59
2023/10/26 14:04:23;;;;;;;4.45;2.60;;;;;;;;;;5095736;28;20028;-59
2023/10/26 14:06:49;;;;;;;3.83;2.53;;;;;;;;;;5095944;28;20028;-59
2023/10/26 14:09:18;;;;;;;3.03;2.10;;;;;;;;;;5095728;28;20046;-59
2023/10/26 14:11:44;;;;;;;4.35;2.97;;;;;;;;;;5096542;28;20028;-59
2023/10/26 14:14:10;;;;;;;3.00;2.10;;;;;;;;;;5095917;28;20081;-59
2023/10/26 14:16:36;;;;;;;3.22;2.50;;;;;;;;;;5096322;28;20331;-59
2023/10/26 14:19:05;;;;;;;3.17;2.45;;;;;;;;;;5096374;28;20155;-59
2023/10/26 14:21:31;;;;;;;4.10;2.50;;;;;;;;;;5095689;28;20028;-59
2023/10/26 14:23:57;;;;;;;3.72;2.80;;;;;;;;;;5096117;28;20103;-59
2023/10/26 14:26:23;;;;;;;3.95;2.80;;;;;;;;;;5095410;28;20162;-59
2023/10/26 14:28:49;;;;;;;2.20;1.90;;;;;;;;;;5095925;28;20474;-59
2023/10/26 14:31:16;;;;;;;4.97;2.45;;;;;;;;;;5095937;28;20397;-59
2023/10/26 14:33:42;;;;;;;4.78;1.98;;;;;;;;;;5095575;28;20028;-59
2023/10/26 14:36:09;;;;;;;2.55;0.98;;;;;;;;;;5095245;28;20135;-59
2023/10/26 14:38:35;;;;;;;1.48;0.70;;;;;;;;;;5096050;28;20361;-59
2023/10/26 14:41:01;;;;;;;2.58;0.77;;;;;;;;;;5095860;28;20156;-59